LiveATC.Net - Listen to live air traffic control over the Internet!


ICAO: KFLG  IATA: FLG   Airport: Flagstaff Pulliam Airport
City: Flagstaff   State/Province: Arizona
Country: United States   Continent: North America
KFLG METAR Weather: KFLG 182057Z 32003KT 6SM VCTS -RA BR BKN080 OVC095 16/14 A3031 RMK AO2 LTG DSNT ALQDS TSE40 SLP177 P0038 60038 T01610139 58002
KFLG ADS-B Flight Tracking (ADSBExchange)
KFLG Flight Activity (FlightAware)
KFLG Airport Info   (iFlightPlanner)
KFLG VFR Sectional Chart   (iFlightPlanner) 
KFLG IFR Low Altitude Chart   (iFlightPlanner) 
KFLG IFR High Altitude Chart   (iFlightPlanner) 

KFLG Ground/Tower
Feed Status: UP   Listeners: 0
Listen in your browser - HTML5 player (in browser, HTML5)
Click here to listen with your own player (launches your MP3 player)
Archive Access: KFLG Ground/Tower
FacilityFrequency
Flagstaff Ground121.900
Flagstaff Tower134.550

NOTICE

Unauthorized use prohibited. See LiveATC.net Terms of Service


Airport/ARTCC Code
Frequency Search
(e.g., 124.400, 128.75)
Site-wide search
 


Browse Feeds
Top 50 Feeds
HF Oceanic Feeds
Coverage Map
Bad Weather Areas

LiveATC FAQ
Offer LiveATC feed
Contact LiveATC.net
Press Inquiries

LiveATC on iPhone
LiveATC on Android

LiveATC Mobile
(Mobile browser)

ATC Audio Archives
Interesting Recordings

LiveATC Forums


Home Page
About LiveATC.net


Terms of Use
Privacy Policy

AIRMETs/SIGMETs

FAA Airport Status
NAS Status
Arrival Demand


Server Software By:
Icecast.org
Liquidsoap